Time;durP1;ratioP1;P1;durP2;ratioP2;P2;SDS_P1;SDS_P2;PMS_P1;PMS_P2;Temp;Humidity;BMP_temperature;BMP_pressure;BME280_temperature;BME280_humidity;BME280_pressure;Samples;Min_cycle;Max_cycle;Signal;HPM_P1;HPM_P2
2023/11/05 00:00:11;;;;;;;12.48;10.82;;;;;;;7.65;78.24;92520.31;517480;28;1207;-70
2023/11/05 00:00:27;;;;;;;13.60;10.73;;;;;;;7.67;78.14;92513.53;517230;28;1088;-70
2023/11/05 00:00:42;;;;;;;14.82;11.38;;;;;;;7.67;78.04;92525.25;517280;28;1187;-70
2023/11/05 00:00:57;;;;;;;14.40;11.80;;;;;;;7.68;78.24;92517.72;516816;28;1266;-70
2023/11/05 00:01:13;;;;;;;13.25;11.07;;;;;;;7.69;78.36;92516.47;513912;28;1145;-70
2023/11/05 00:01:29;;;;;;;12.60;10.47;;;;;;;7.69;78.12;92519.91;515856;28;1096;-70
2023/11/05 00:01:44;;;;;;;12.77;10.90;;;;;;;7.65;78.34;92506.56;517734;28;1164;-70
2023/11/05 00:02:00;;;;;;;11.63;10.35;;;;;;;7.72;78.38;92518.81;517702;28;1088;-70
2023/11/05 00:02:15;;;;;;;12.00;10.13;;;;;;;7.72;78.49;92520.84;517323;28;1096;-69
2023/11/05 00:02:31;;;;;;;14.60;10.87;;;;;;;7.73;78.33;92528.53;515315;28;1105;-70
2023/11/05 00:02:46;;;;;;;17.35;11.15;;;;;;;7.73;78.77;92517.56;515644;28;1140;-70
2023/11/05 00:03:02;;;;;;;27.27;16.70;;;;;;;7.63;78.86;92502.91;513650;28;887;-70
2023/11/05 00:03:18;;;;;;;45.38;28.70;;;;;;;7.76;78.68;92532.19;513725;28;901;-68
2023/11/05 00:03:33;;;;;;;46.97;30.57;;;;;;;7.76;78.94;92530.16;515817;28;891;-70
2023/11/05 00:03:49;;;;;;;45.92;30.02;;;;;;;7.77;78.58;92519.91;513754;28;1358;-69
2023/11/05 00:04:05;;;;;;;49.63;32.87;;;;;;;7.75;78.50;92530.72;516073;28;1149;-69
2023/11/05 00:04:20;;;;;;;52.03;34.30;;;;;;;7.71;78.56;92527.63;512329;28;1517;-69
2023/11/05 00:04:36;;;;;;;52.53;33.50;;;;;;;7.71;78.43;92527.63;513970;28;1051;-70
2023/11/05 00:04:51;;;;;;;44.90;29.45;;;;;;;7.70;77.91;92526.91;514671;28;1199;-69
2023/11/05 00:05:08;;;;;;;43.53;26.77;;;;;;;7.70;77.77;92526.16;515009;28;1111;-69
2023/11/05 00:05:24;;;;;;;50.28;29.45;;;;;;;7.69;77.42;92524.72;513450;28;1227;-69
2023/11/05 00:05:39;;;;;;;54.20;33.50;;;;;;;7.69;77.50;92530.19;513196;28;1141;-69
2023/11/05 00:05:55;;;;;;;57.27;35.73;;;;;;;7.70;77.65;92526.16;513331;28;1145;-68
2023/11/05 00:06:11;;;;;;;65.95;39.05;;;;;;;7.70;77.40;92521.41;512307;28;1208;-69
2023/11/05 00:06:27;;;;;;;66.30;38.00;;;;;;;7.72;77.65;92523.59;514929;28;1167;-69
2023/11/05 00:06:43;;;;;;;47.55;29.38;;;;;;;7.71;77.60;92528.34;515192;28;1207;-69
2023/11/05 00:07:00;;;;;;;28.20;19.38;;;;;;;7.72;77.59;92521.56;513164;28;1312;-69
2023/11/05 00:07:16;;;;;;;18.08;12.52;;;;;;;7.73;77.24;92519.56;513159;28;1236;-69
2023/11/05 00:07:31;;;;;;;13.57;9.88;;;;;;;7.73;77.17;92520.31;513476;28;1118;-69
2023/11/05 00:07:47;;;;;;;11.37;8.83;;;;;;;7.74;77.27;92524.50;512612;28;1124;-69
2023/11/05 00:08:04;;;;;;;12.32;8.90;;;;;;;7.73;77.20;92528.53;513561;28;1293;-69
2023/11/05 00:08:19;;;;;;;12.90;8.93;;;;;;;7.74;77.22;92521.75;513607;28;1211;-69
2023/11/05 00:08:35;;;;;;;14.20;9.83;;;;;;;7.76;77.08;92523.94;513277;28;1192;-69
2023/11/05 00:08:50;;;;;;;14.35;10.35;;;;;;;7.75;76.90;92519.75;513501;28;1129;-69
2023/11/05 00:09:08;;;;;;;12.33;9.37;;;;;;;7.76;76.90;92515.69;515188;28;1120;-69
2023/11/05 00:09:23;;;;;;;11.38;8.27;;;;;;;7.76;76.51;92518.44;512472;28;1211;-69
2023/11/05 00:09:38;;;;;;;10.47;8.40;;;;;;;7.76;76.63;92526.69;513281;28;1154;-69
2023/11/05 00:09:54;;;;;;;10.87;9.10;;;;;;;7.76;76.47;92523.94;513264;28;1069;-69
2023/11/05 00:10:10;;;;;;;12.03;9.73;;;;;;;7.76;76.64;92512.94;512307;28;1275;-69
2023/11/05 00:10:25;;;;;;;11.07;9.50;;;;;;;7.76;76.56;92521.94;512700;28;1144;-69
2023/11/05 00:10:41;;;;;;;10.97;9.10;;;;;;;7.77;76.41;92523.41;513036;28;1388;-69
2023/11/05 00:10:57;;;;;;;12.00;9.00;;;;;;;7.76;76.29;92521.19;512020;28;1121;-69
2023/11/05 00:11:12;;;;;;;13.25;8.75;;;;;;;7.75;76.43;92525.97;515603;28;1184;-69
2023/11/05 00:11:28;;;;;;;15.93;9.50;;;;;;;7.76;76.26;92527.44;514894;28;1179;-69
2023/11/05 00:11:43;;;;;;;14.25;9.82;;;;;;;7.76;76.57;92521.19;516800;28;1175;-69
2023/11/05 00:11:59;;;;;;;13.33;9.77;;;;;;;7.77;76.32;92522.66;515135;28;1132;-69
2023/11/05 00:12:14;;;;;;;12.60;9.63;;;;;;;7.70;76.41;92515.91;514751;28;1233;-69
2023/11/05 00:12:30;;;;;;;11.23;9.57;;;;;;;7.76;76.40;92521.94;515325;28;1302;-69
2023/11/05 00:12:45;;;;;;;13.27;9.48;;;;;;;7.77;76.31;92522.66;514399;28;1085;-69
2023/11/05 00:13:01;;;;;;;14.30;9.23;;;;;;;7.78;76.12;92524.13;514275;28;1077;-69
2023/11/05 00:13:16;;;;;;;13.10;9.38;;;;;;;7.77;76.17;92522.66;514595;28;1175;-69
2023/11/05 00:13:32;;;;;;;12.63;9.47;;;;;;;7.78;76.19;92518.63;515848;28;1237;-69
2023/11/05 00:13:47;;;;;;;12.38;9.60;;;;;;;7.79;76.25;92525.59;517458;28;1261;-69
2023/11/05 00:14:03;;;;;;;12.50;10.00;;;;;;;7.64;76.40;92493.41;516328;28;1127;-69
2023/11/05 00:14:18;;;;;;;13.48;10.30;;;;;;;7.78;76.55;92515.88;514959;28;1169;-69
2023/11/05 00:14:34;;;;;;;13.73;10.27;;;;;;;7.78;76.39;92522.09;515732;28;1343;-69
2023/11/05 00:14:49;;;;;;;13.18;10.18;;;;;;;7.78;76.48;92527.59;515276;28;1265;-69
2023/11/05 00:15:05;;;;;;;11.60;9.50;;;;;;;7.78;76.37;92521.38;516284;28;1148;-69
2023/11/05 00:15:21;;;;;;;10.60;8.75;;;;;;;7.77;76.54;92522.66;514187;28;1129;-70
2023/11/05 00:15:38;;;;;;;11.27;8.83;;;;;;;7.74;76.70;92521.75;514228;28;1142;-69
2023/11/05 00:15:54;;;;;;;12.35;9.50;;;;;;;7.75;76.46;92522.50;514269;28;1923;-69
2023/11/05 00:16:09;;;;;;;11.05;9.52;;;;;;;7.74;76.46;92519.00;514916;28;1347;-69
2023/11/05 00:16:24;;;;;;;13.57;10.03;;;;;;;7.73;76.54;92523.06;515060;28;1089;-69
2023/11/05 00:16:40;;;;;;;14.63;10.57;;;;;;;7.74;76.54;92521.75;513957;28;1139;-69
2023/11/05 00:16:55;;;;;;;14.82;10.95;;;;;;;7.74;76.55;92526.50;513832;28;1340;-69
2023/11/05 00:17:11;;;;;;;14.77;10.30;;;;;;;7.73;76.53;92527.81;513881;28;1293;-69
2023/11/05 00:17:26;;;;;;;13.03;9.77;;;;;;;7.70;76.66;92524.16;514383;28;1263;-69
2023/11/05 00:17:41;;;;;;;12.05;9.60;;;;;;;7.54;76.52;92504.19;517206;28;1089;-69
2023/11/05 00:17:57;;;;;;;14.10;9.83;;;;;;;7.67;76.78;92527.28;513470;28;1196;-69
2023/11/05 00:18:12;;;;;;;14.95;10.02;;;;;;;7.70;76.90;92534.41;514990;28;1293;-69
2023/11/05 00:18:28;;;;;;;12.00;9.67;;;;;;;7.68;76.82;92526.72;514629;28;1260;-69
2023/11/05 00:18:43;;;;;;;10.73;9.45;;;;;;;7.70;77.04;92526.91;517241;28;1269;-69
2023/11/05 00:18:59;;;;;;;11.23;9.63;;;;;;;7.69;77.13;92530.19;515299;28;1150;-69
2023/11/05 00:19:14;;;;;;;14.13;11.00;;;;;;;7.70;77.51;92532.38;514568;28;1089;-69
2023/11/05 00:19:29;;;;;;;14.77;11.52;;;;;;;7.69;77.52;92533.66;517106;28;1207;-69
2023/11/05 00:19:45;;;;;;;14.33;11.40;;;;;;;7.71;77.73;92533.13;517537;28;1176;-69
2023/11/05 00:20:06;;;;;;;14.43;11.63;;;;;;;7.71;77.67;92533.13;515778;28;950;-69
2023/11/05 00:20:22;;;;;;;15.32;11.40;;;;;;;7.72;77.91;92537.31;513892;28;1183;-69
2023/11/05 00:20:37;;;;;;;14.37;10.73;;;;;;;7.71;77.70;92536.59;515363;28;1136;-69
2023/11/05 00:20:54;;;;;;;13.27;10.30;;;;;;;7.72;77.80;92531.81;513708;28;1180;-69
2023/11/05 00:21:09;;;;;;;13.02;10.27;;;;;;;7.65;77.38;92514.06;517339;28;1187;-69
2023/11/05 00:21:24;;;;;;;13.15;10.43;;;;;;;7.65;77.12;92530.56;517320;28;1179;-69
2023/11/05 00:21:40;;;;;;;13.27;10.40;;;;;;;7.61;77.27;92528.19;515783;28;1132;-69
2023/11/05 00:21:55;;;;;;;13.37;10.03;;;;;;;7.60;77.23;92531.50;517636;28;1084;-69
2023/11/05 00:22:11;;;;;;;12.82;10.30;;;;;;;7.61;77.29;92530.19;517468;28;1128;-69
2023/11/05 00:22:26;;;;;;;11.37;9.70;;;;;;;7.61;77.20;92528.19;515252;28;1097;-69
2023/11/05 00:22:42;;;;;;;10.30;9.20;;;;;;;7.62;77.18;92526.19;515903;28;845;-69
2023/11/05 00:22:57;;;;;;;13.03;9.57;;;;;;;7.62;77.16;92534.41;515382;28;1199;-69
2023/11/05 00:23:13;;;;;;;13.18;9.70;;;;;;;7.62;76.91;92528.94;515466;28;1295;-69
2023/11/05 00:23:30;;;;;;;11.48;9.73;;;;;;;7.63;77.13;92538.63;513325;28;1259;-69
2023/11/05 00:23:46;;;;;;;13.85;9.90;;;;;;;7.63;77.15;92528.38;513828;28;960;-69
2023/11/05 00:24:02;;;;;;;13.50;9.77;;;;;;;7.64;77.14;92531.84;513729;28;1046;-69
2023/11/05 00:24:18;;;;;;;11.75;9.40;;;;;;;7.64;77.51;92532.56;513599;28;1221;-69
2023/11/05 00:24:33;;;;;;;12.63;9.35;;;;;;;7.64;77.41;92529.81;513702;28;833;-69
2023/11/05 00:24:48;;;;;;;14.98;9.90;;;;;;;7.65;77.44;92531.28;513881;28;1080;-69
2023/11/05 00:25:04;;;;;;;15.30;10.07;;;;;;;7.64;77.51;92532.56;513437;28;1488;-69
2023/11/05 00:25:20;;;;;;;16.70;9.80;;;;;;;7.66;77.60;92534.78;515182;28;1607;-69
2023/11/05 00:25:37;;;;;;;21.60;10.50;;;;;;;7.67;77.83;92532.78;513296;28;1247;-69
2023/11/05 00:25:53;;;;;;;20.25;9.90;;;;;;;7.67;77.82;92525.25;513672;28;1145;-69
2023/11/05 00:26:08;;;;;;;17.02;9.15;;;;;;;7.68;77.91;92532.22;511676;29;848;-69
2023/11/05 00:26:24;;;;;;;17.48;10.32;;;;;;;7.68;78.01;92526.72;509465;29;2581;-69
2023/11/05 00:26:39;;;;;;;16.90;10.97;;;;;;;7.68;78.27;92529.47;513112;28;1055;-69
2023/11/05 00:26:54;;;;;;;16.40;10.70;;;;;;;7.68;77.98;92523.22;513340;28;1196;-70
2023/11/05 00:27:10;;;;;;;15.85;10.57;;;;;;;7.69;78.21;92527.47;513846;28;1062;-69
2023/11/05 00:27:25;;;;;;;15.40;10.63;;;;;;;7.48;78.59;92491.94;513489;28;1104;-68
2023/11/05 00:27:41;;;;;;;15.70;11.23;;;;;;;7.71;78.75;92519.38;513132;28;1176;-68
2023/11/05 00:27:56;;;;;;;14.70;11.17;;;;;;;7.72;78.88;92512.59;513345;28;1173;-68
2023/11/05 00:28:12;;;;;;;12.50;10.20;;;;;;;7.72;78.81;92509.84;513587;28;995;-68
2023/11/05 00:28:27;;;;;;;12.03;9.67;;;;;;;7.73;78.84;92511.31;515200;28;1108;-68
2023/11/05 00:28:43;;;;;;;12.82;10.00;;;;;;;7.73;78.82;92512.06;514046;28;1174;-68
2023/11/05 00:28:58;;;;;;;14.33;10.33;;;;;;;7.73;78.82;92514.81;516269;28;1105;-69
2023/11/05 00:29:14;;;;;;;16.17;10.20;;;;;;;7.74;78.39;92510.03;517536;28;1139;-68
2023/11/05 00:29:30;;;;;;;15.32;9.90;;;;;;;7.74;78.31;92513.50;514469;28;1135;-68
2023/11/05 00:29:45;;;;;;;15.23;9.53;;;;;;;7.75;78.09;92514.25;515975;28;1140;-68
2023/11/05 00:30:01;;;;;;;18.30;9.55;;;;;;;7.75;77.88;92508.75;517638;28;1092;-68
2023/11/05 00:30:16;;;;;;;17.40;9.17;;;;;;;7.76;77.63;92510.19;516235;28;923;-68
2023/11/05 00:30:31;;;;;;;15.97;8.70;;;;;;;7.76;77.48;92507.44;515392;28;1140;-69
2023/11/05 00:30:47;;;;;;;15.13;8.48;;;;;;;7.76;77.45;92505.44;514329;28;1097;-69
2023/11/05 00:31:03;;;;;;;16.15;8.57;;;;;;;7.77;77.24;92508.94;515775;28;1160;-68
2023/11/05 00:31:19;;;;;;;14.85;8.50;;;;;;;7.75;77.10;92509.50;517345;28;1136;-68
2023/11/05 00:31:34;;;;;;;13.33;8.63;;;;;;;7.74;77.30;92504.53;517528;28;1104;-69
2023/11/05 00:31:52;;;;;;;12.43;8.10;;;;;;;7.74;77.27;92502.53;516723;28;1104;-68
2023/11/05 00:32:07;;;;;;;10.70;7.47;;;;;;;7.76;77.26;92510.19;514357;28;1207;-68
2023/11/05 00:32:22;;;;;;;10.13;7.60;;;;;;;7.72;77.18;92505.09;515327;28;1030;-68
2023/11/05 00:32:38;;;;;;;9.13;7.35;;;;;;;7.76;77.09;92510.94;517456;28;1233;-68
2023/11/05 00:32:53;;;;;;;11.10;7.43;;;;;;;7.76;77.06;92499.94;516658;28;1096;-69
2023/11/05 00:33:09;;;;;;;12.37;8.37;;;;;;;7.78;76.91;92504.88;515600;28;962;-69
2023/11/05 00:33:24;;;;;;;10.23;7.85;;;;;;;7.77;76.94;92509.66;514795;28;1155;-69
2023/11/05 00:33:40;;;;;;;11.10;7.30;;;;;;;7.78;77.14;92504.88;514864;28;1144;-69
2023/11/05 00:33:55;;;;;;;15.87;7.60;;;;;;;7.76;76.85;92504.72;516844;28;1088;-69
2023/11/05 00:34:11;;;;;;;14.05;7.40;;;;;;;7.63;76.96;92481.66;515392;28;1211;-69
2023/11/05 00:34:26;;;;;;;10.63;7.27;;;;;;;7.76;76.83;92501.97;514748;28;1101;-69
2023/11/05 00:34:42;;;;;;;12.23;7.70;;;;;;;7.75;76.78;92497.75;514350;28;1141;-69
2023/11/05 00:34:57;;;;;;;11.68;7.85;;;;;;;7.72;76.70;92504.34;517422;28;1167;-69
2023/11/05 00:35:13;;;;;;;12.98;8.35;;;;;;;7.68;76.90;92499.25;517039;28;1191;-69
2023/11/05 00:35:30;;;;;;;12.67;8.67;;;;;;;7.69;77.05;92505.47;515404;28;1021;-69
2023/11/05 00:35:45;;;;;;;9.93;7.68;;;;;;;7.68;76.99;92512.97;515438;28;1918;-69
2023/11/05 00:36:01;;;;;;;12.10;7.73;;;;;;;7.68;77.01;92504.00;515631;28;1183;-69
2023/11/05 00:36:16;;;;;;;13.85;8.45;;;;;;;7.64;77.19;92502.34;515245;28;1096;-69
2023/11/05 00:36:32;;;;;;;12.83;9.10;;;;;;;7.68;76.76;92501.25;513182;28;1101;-69
2023/11/05 00:36:47;;;;;;;14.00;9.68;;;;;;;7.67;76.75;92500.50;513195;28;1179;-69
2023/11/05 00:37:03;;;;;;;13.57;9.23;;;;;;;7.68;76.49;92502.00;513364;28;1149;-69
2023/11/05 00:37:18;;;;;;;12.48;9.07;;;;;;;7.68;76.43;92509.50;511502;28;1107;-69
2023/11/05 00:37:33;;;;;;;16.63;11.27;;;;;;;7.67;76.38;92508.03;515613;28;1100;-69
2023/11/05 00:37:49;;;;;;;21.80;13.90;;;;;;;7.67;76.41;92502.56;514995;28;2563;-69
2023/11/05 00:38:04;;;;;;;20.65;15.00;;;;;;;7.67;76.49;92510.78;515674;28;908;-69
2023/11/05 00:38:20;;;;;;;19.93;15.77;;;;;;;7.64;76.37;92507.84;515447;28;1275;-69
2023/11/05 00:38:35;;;;;;;24.15;17.27;;;;;;;7.63;76.46;92502.91;513105;28;1282;-69
2023/11/05 00:38:55;;;;;;;26.67;18.50;;;;;;;7.63;76.29;92502.91;513243;28;1216;-69
2023/11/05 00:39:10;;;;;;;23.85;18.65;;;;;;;7.62;76.35;92504.22;513429;28;970;-69
2023/11/05 00:39:26;;;;;;;30.60;19.17;;;;;;;7.62;76.44;92509.69;513213;28;1037;-69
2023/11/05 00:39:43;;;;;;;30.33;17.88;;;;;;;7.61;76.27;92502.72;512769;28;1571;-69
2023/11/05 00:39:58;;;;;;;20.08;14.88;;;;;;;7.60;76.15;92510.22;513285;28;1065;-69
2023/11/05 00:40:13;;;;;;;16.97;13.87;;;;;;;7.58;76.15;92499.06;515320;28;1171;-69
2023/11/05 00:40:29;;;;;;;17.40;13.27;;;;;;;7.60;76.15;92512.97;516347;28;1128;-69
2023/11/05 00:40:45;;;;;;;18.70;13.20;;;;;;;7.58;76.10;92496.31;516421;28;969;-69
2023/11/05 00:41:00;;;;;;;20.25;13.55;;;;;;;7.57;76.14;92503.13;515533;28;848;-69
2023/11/05 00:41:15;;;;;;;20.20;14.47;;;;;;;7.58;76.16;92512.81;513908;28;754;-69
2023/11/05 00:41:32;;;;;;;19.77;14.23;;;;;;;7.57;76.09;92508.59;517340;28;1272;-69
2023/11/05 00:41:47;;;;;;;19.55;13.43;;;;;;;7.57;76.28;92507.88;517670;28;1527;-69
2023/11/05 00:42:02;;;;;;;18.10;13.30;;;;;;;7.57;76.34;92513.38;513657;28;1282;-69
2023/11/05 00:42:18;;;;;;;16.43;12.70;;;;;;;7.57;76.41;92507.88;517029;28;1128;-69
2023/11/05 00:42:33;;;;;;;15.18;11.32;;;;;;;7.57;76.51;92513.38;515596;28;1234;-69
2023/11/05 00:42:48;;;;;;;16.07;11.47;;;;;;;7.57;76.91;92516.09;515269;28;1136;-69
2023/11/05 00:43:04;;;;;;;16.60;12.13;;;;;;;7.57;77.05;92513.38;515154;28;1116;-69
2023/11/05 00:43:20;;;;;;;15.82;11.68;;;;;;;7.57;77.11;92516.09;515658;28;925;-69
2023/11/05 00:43:35;;;;;;;15.65;11.77;;;;;;;7.56;77.39;92509.88;513860;28;958;-69
2023/11/05 00:43:51;;;;;;;15.60;11.70;;;;;;;7.56;77.05;92509.88;516446;28;1394;-69
2023/11/05 00:44:06;;;;;;;17.67;12.00;;;;;;;7.57;77.15;92516.09;517473;28;1195;-69
2023/11/05 00:44:22;;;;;;;16.60;11.57;;;;;;;7.58;76.78;92520.31;517497;28;1119;-69
2023/11/05 00:44:37;;;;;;;15.25;10.63;;;;;;;7.56;76.64;92515.38;515915;28;1060;-69
2023/11/05 00:44:53;;;;;;;14.00;10.27;;;;;;;7.57;76.64;92527.09;516704;28;1093;-68
2023/11/05 00:45:08;;;;;;;15.75;10.55;;;;;;;7.44;76.54;92503.31;516353;28;1219;-68
2023/11/05 00:45:23;;;;;;;18.60;11.40;;;;;;;7.55;76.53;92519.41;515560;28;1180;-69
2023/11/05 00:45:39;;;;;;;15.83;11.13;;;;;;;7.55;76.51;92521.44;516596;28;1164;-69
2023/11/05 00:45:54;;;;;;;14.20;10.45;;;;;;;7.56;76.46;92522.88;517338;28;1116;-69
2023/11/05 00:46:12;;;;;;;12.97;10.23;;;;;;;7.56;76.44;92520.13;516675;28;1116;-69
2023/11/05 00:46:28;;;;;;;12.65;9.82;;;;;;;7.54;76.32;92526.19;515381;28;1097;-69
2023/11/05 00:46:43;;;;;;;13.10;9.80;;;;;;;7.38;76.22;92510.28;516761;28;1226;-69
2023/11/05 00:46:58;;;;;;;13.55;10.73;;;;;;;7.52;76.65;92528.00;514812;28;1436;-69
2023/11/05 00:47:14;;;;;;;12.43;10.73;;;;;;;7.49;76.66;92532.59;515784;28;1117;-69
2023/11/05 00:47:29;;;;;;;11.43;10.30;;;;;;;7.47;76.85;92531.69;516457;28;1117;-69
2023/11/05 00:47:44;;;;;;;13.90;11.52;;;;;;;7.46;76.72;92532.97;515482;28;1097;-69
2023/11/05 00:48:00;;;;;;;16.93;12.43;;;;;;;7.46;76.69;92530.22;516258;28;1077;-69
2023/11/05 00:48:15;;;;;;;17.50;12.02;;;;;;;7.48;76.64;92531.13;516953;28;1100;-69
2023/11/05 00:48:30;;;;;;;18.40;12.23;;;;;;;7.48;76.54;92531.13;515443;28;1140;-69
2023/11/05 00:48:47;;;;;;;17.13;11.90;;;;;;;7.50;76.22;92528.56;515924;28;1132;-69
2023/11/05 00:49:02;;;;;;;13.70;10.50;;;;;;;7.49;76.12;92524.34;516172;28;1171;-69
2023/11/05 00:49:17;;;;;;;13.25;9.98;;;;;;;7.50;76.11;92528.56;514692;28;1227;-69
2023/11/05 00:49:33;;;;;;;13.87;10.57;;;;;;;7.51;75.84;92530.00;517349;28;1137;-70
2023/11/05 00:49:48;;;;;;;13.73;10.77;;;;;;;7.52;75.90;92530.75;517038;28;1155;-69
2023/11/05 00:50:04;;;;;;;14.52;10.85;;;;;;;7.52;75.93;92525.25;515526;28;1073;-70
2023/11/05 00:50:19;;;;;;;15.15;11.02;;;;;;;7.50;75.70;92525.81;515822;28;1085;-70
2023/11/05 00:50:35;;;;;;;15.67;11.40;;;;;;;7.49;75.88;92527.09;517334;28;1100;-70
2023/11/05 00:50:50;;;;;;;13.57;10.40;;;;;;;7.50;75.85;92520.31;517080;28;1092;-70
2023/11/05 00:51:06;;;;;;;14.30;10.60;;;;;;;7.50;75.61;92519.59;515522;28;1009;-69
2023/11/05 00:51:21;;;;;;;15.43;11.30;;;;;;;7.50;75.67;92527.84;515750;28;1171;-69
2023/11/05 00:51:36;;;;;;;14.32;11.10;;;;;;;7.49;75.57;92515.41;517466;28;1155;-70
2023/11/05 00:51:52;;;;;;;15.23;11.33;;;;;;;7.49;75.57;92518.13;515622;28;777;-69
2023/11/05 00:52:08;;;;;;;14.55;10.43;;;;;;;7.48;75.39;92524.91;513709;28;999;-69
2023/11/05 00:52:23;;;;;;;13.60;9.20;;;;;;;7.47;75.61;92523.47;515534;28;853;-70
2023/11/05 00:52:38;;;;;;;13.68;8.93;;;;;;;7.31;75.50;92506.25;513323;28;1255;-69
2023/11/05 00:52:54;;;;;;;15.57;10.43;;;;;;;7.44;75.58;92519.06;516940;28;1172;-69
2023/11/05 00:53:09;;;;;;;14.87;10.93;;;;;;;7.44;75.48;92519.06;517548;28;1187;-69
2023/11/05 00:53:24;;;;;;;14.25;10.23;;;;;;;7.42;75.37;92516.88;517362;28;986;-69
2023/11/05 00:53:40;;;;;;;18.37;13.30;;;;;;;7.37;75.22;92520.53;517345;28;1139;-69
2023/11/05 00:53:55;;;;;;;18.43;14.90;;;;;;;7.37;75.29;92517.03;517355;28;1136;-69
2023/11/05 00:54:11;;;;;;;18.15;13.98;;;;;;;7.35;75.32;92517.59;514997;28;1361;-69
2023/11/05 00:54:26;;;;;;;19.57;13.90;;;;;;;7.33;75.35;92517.41;515250;28;1088;-69
2023/11/05 00:54:41;;;;;;;16.83;13.15;;;;;;;7.33;75.26;92519.44;516828;28;1116;-69
2023/11/05 00:54:57;;;;;;;16.90;13.17;;;;;;;7.31;75.35;92517.25;515865;28;1112;-69
2023/11/05 00:55:12;;;;;;;17.50;13.50;;;;;;;7.31;75.25;92519.25;516793;28;1152;-69
2023/11/05 00:55:27;;;;;;;18.08;13.90;;;;;;;7.29;75.26;92519.06;517505;28;1112;-69
2023/11/05 00:55:43;;;;;;;23.73;14.10;;;;;;;7.29;75.18;92514.31;516263;28;1116;-69
2023/11/05 00:55:58;;;;;;;23.73;14.40;;;;;;;7.28;75.29;92515.59;514589;28;1939;-70
2023/11/05 00:56:14;;;;;;;18.50;14.07;;;;;;;7.28;75.49;92515.59;515466;28;1169;-70
2023/11/05 00:56:29;;;;;;;19.10;14.20;;;;;;;7.28;75.27;92512.09;517219;28;1143;-69
2023/11/05 00:56:44;;;;;;;20.73;14.70;;;;;;;7.28;75.44;92512.09;516537;28;1147;-70
2023/11/05 00:57:00;;;;;;;19.00;13.88;;;;;;;7.29;75.37;92513.56;514633;28;1117;-70
2023/11/05 00:57:15;;;;;;;20.53;13.87;;;;;;;7.28;75.59;92512.09;514814;28;1195;-70
2023/11/05 00:57:30;;;;;;;20.50;14.07;;;;;;;7.28;75.42;92514.84;516581;28;934;-70
2023/11/05 00:57:46;;;;;;;17.67;13.47;;;;;;;7.28;75.38;92507.34;515898;28;1155;-70
2023/11/05 00:58:01;;;;;;;17.93;13.57;;;;;;;7.26;75.27;92509.91;516762;28;1163;-69
2023/11/05 00:58:17;;;;;;;18.95;15.20;;;;;;;7.25;75.50;92511.22;515515;28;1167;-70
2023/11/05 00:58:32;;;;;;;21.27;16.50;;;;;;;7.25;75.43;92502.97;517213;28;1140;-69
2023/11/05 00:58:47;;;;;;;21.38;17.05;;;;;;;7.25;75.22;92508.47;517219;28;1144;-70
2023/11/05 00:59:03;;;;;;;21.83;17.50;;;;;;;7.25;75.29;92511.22;517149;28;1013;-70
2023/11/05 00:59:19;;;;;;;20.80;17.13;;;;;;;7.24;75.10;92509.72;514920;28;1148;-69
2023/11/05 00:59:34;;;;;;;17.27;15.40;;;;;;;7.22;75.21;92509.56;513721;28;1133;-70
2023/11/05 00:59:50;;;;;;;14.55;13.00;;;;;;;7.21;75.23;92508.06;517260;28;1131;-69
2023/11/05 01:00:08;;;;;;;13.33;11.80;;;;;;;7.18;75.25;92508.44;517353;28;1151;-69
2023/11/05 01:00:24;;;;;;;12.07;10.80;;;;;;;7.14;75.39;92508.81;515098;28;1029;-70
2023/11/05 01:00:39;;;;;;;11.50;10.30;;;;;;;7.15;75.66;92506.78;514189;28;1172;-70
2023/11/05 01:00:54;;;;;;;11.90;10.33;;;;;;;7.14;75.52;92508.09;511344;28;1161;-70
2023/11/05 01:01:10;;;;;;;12.55;11.15;;;;;;;7.14;75.65;92510.84;513312;28;1113;-70
2023/11/05 01:01:25;;;;;;;12.97;11.60;;;;;;;7.13;75.85;92510.09;513082;28;1137;-70
2023/11/05 01:01:40;;;;;;;14.13;11.63;;;;;;;7.10;75.94;92505.72;513386;28;1078;-70
2023/11/05 01:01:57;;;;;;;14.38;11.07;;;;;;;7.11;76.03;92504.44;515041;28;1100;-70
2023/11/05 01:02:12;;;;;;;12.57;9.85;;;;;;;7.11;76.00;92504.44;512243;28;1136;-70
2023/11/05 01:02:28;;;;;;;12.95;10.20;;;;;;;7.10;76.20;92499.50;515293;28;1163;-70
2023/11/05 01:02:43;;;;;;;13.97;12.13;;;;;;;7.09;76.33;92501.50;515059;28;1167;-70
2023/11/05 01:02:59;;;;;;;13.73;12.32;;;;;;;7.10;76.70;92502.97;513383;28;1101;-70
2023/11/05 01:03:14;;;;;;;12.93;11.63;;;;;;;7.09;76.81;92501.50;513443;28;944;-70
2023/11/05 01:03:29;;;;;;;12.30;11.10;;;;;;;7.11;76.87;92498.19;513258;28;1147;-70
2023/11/05 01:03:45;;;;;;;11.80;10.40;;;;;;;7.10;77.25;92497.50;517140;28;1306;-70
2023/11/05 01:04:00;;;;;;;11.93;10.20;;;;;;;7.11;77.33;92493.44;517395;28;1600;-70
2023/11/05 01:04:16;;;;;;;12.30;10.75;;;;;;;7.12;77.27;92494.19;515450;28;989;-70
2023/11/05 01:04:31;;;;;;;12.63;10.87;;;;;;;7.11;77.59;92487.97;517092;28;998;-69
2023/11/05 01:04:46;;;;;;;12.13;10.33;;;;;;;7.12;77.67;92485.94;515407;28;1248;-70
2023/11/05 01:05:03;;;;;;;12.07;10.20;;;;;;;7.13;77.75;92490.13;513817;28;1073;-70
2023/11/05 01:05:18;;;;;;;10.50;9.35;;;;;;;7.06;78.02;92483.38;516370;28;1196;-70
2023/11/05 01:05:34;;;;;;;11.07;9.88;;;;;;;7.12;77.79;92488.69;517181;28;1139;-70
2023/11/05 01:05:49;;;;;;;12.10;10.80;;;;;;;7.11;77.85;92484.47;513382;28;1196;-70
2023/11/05 01:06:05;;;;;;;11.60;10.47;;;;;;;7.10;77.95;92486.50;513116;28;1117;-70
2023/11/05 01:06:20;;;;;;;11.02;10.00;;;;;;;7.11;77.75;92487.22;512972;28;962;-70
2023/11/05 01:06:35;;;;;;;10.77;9.77;;;;;;;7.04;77.91;92477.69;511496;28;1159;-69
2023/11/05 01:06:51;;;;;;;11.13;10.13;;;;;;;7.12;78.01;92488.69;512181;28;1168;-69
2023/11/05 01:07:06;;;;;;;12.07;10.97;;;;;;;7.07;78.00;92476.63;511898;28;1117;-69
2023/11/05 01:07:22;;;;;;;11.60;10.50;;;;;;;7.11;77.96;92482.47;511982;28;1140;-69
2023/11/05 01:07:37;;;;;;;10.70;9.70;;;;;;;7.13;78.20;92484.66;513091;28;1113;-70
2023/11/05 01:07:53;;;;;;;10.75;9.73;;;;;;;7.13;78.06;92487.41;513985;28;1068;-70
2023/11/05 01:08:08;;;;;;;10.87;9.53;;;;;;;7.14;78.07;92488.88;513978;28;1108;-69
2023/11/05 01:08:23;;;;;;;10.37;9.27;;;;;;;7.11;78.02;92482.47;511912;28;1080;-69
2023/11/05 01:08:39;;;;;;;10.00;9.10;;;;;;;7.12;78.15;92491.44;511700;28;1105;-69
2023/11/05 01:08:54;;;;;;;10.97;9.87;;;;;;;7.12;78.18;92483.19;513113;28;1191;-69
2023/11/05 01:09:10;;;;;;;11.02;9.85;;;;;;;7.13;78.45;92490.13;514025;28;1160;-69
2023/11/05 01:09:25;;;;;;;10.10;9.13;;;;;;;7.12;78.50;92496.94;516938;28;1199;-69
2023/11/05 01:09:41;;;;;;;10.10;9.10;;;;;;;7.11;78.44;92485.22;516409;28;1147;-70
2023/11/05 01:09:56;;;;;;;9.82;8.68;;;;;;;7.13;78.41;92487.41;515864;28;1152;-69
2023/11/05 01:10:11;;;;;;;9.93;8.93;;;;;;;7.11;78.40;92487.97;516796;28;1081;-69
2023/11/05 01:10:27;;;;;;;9.93;8.90;;;;;;;7.12;78.60;92480.47;515040;28;1148;-69
2023/11/05 01:10:42;;;;;;;10.77;9.00;;;;;;;7.13;78.56;92479.91;515247;28;1092;-70
2023/11/05 01:10:58;;;;;;;10.40;8.57;;;;;;;7.13;78.52;92485.38;515238;28;1139;-69
2023/11/05 01:11:14;;;;;;;9.77;8.18;;;;;;;7.14;78.66;92481.38;515378;28;1156;-70
2023/11/05 01:11:30;;;;;;;10.30;9.20;;;;;;;7.13;78.50;92482.66;514917;28;1215;-70
2023/11/05 01:11:47;;;;;;;10.90;9.85;;;;;;;7.13;78.48;92484.66;515078;28;1148;-69
2023/11/05 01:12:03;;;;;;;9.95;9.05;;;;;;;7.10;78.24;92483.03;515306;28;1144;-69
2023/11/05 01:12:18;;;;;;;9.95;9.05;;;;;;;7.06;78.40;92488.88;514229;28;1140;-69
2023/11/05 01:12:33;;;;;;;10.17;9.13;;;;;;;7.05;78.24;92486.69;514380;28;977;-69
2023/11/05 01:12:50;;;;;;;9.77;8.77;;;;;;;7.03;78.37;92481.75;514992;28;1097;-69
2023/11/05 01:13:05;;;;;;;9.27;8.38;;;;;;;7.03;78.57;92484.50;515758;28;1096;-69
2023/11/05 01:13:20;;;;;;;9.97;8.17;;;;;;;7.03;78.60;92479.00;517124;28;1084;-69
2023/11/05 01:13:36;;;;;;;10.93;8.20;;;;;;;7.04;78.53;92485.22;516756;28;1136;-69
2023/11/05 01:13:51;;;;;;;9.63;7.88;;;;;;;7.03;78.61;92484.50;515063;28;1105;-69
2023/11/05 01:14:06;;;;;;;9.13;8.13;;;;;;;7.03;78.62;92492.72;515371;28;1096;-69
2023/11/05 01:14:22;;;;;;;9.53;8.53;;;;;;;7.03;78.73;92489.97;515230;28;1148;-69
2023/11/05 01:14:37;;;;;;;9.70;8.50;;;;;;;7.03;78.78;92487.22;515510;28;766;-69
2023/11/05 01:14:54;;;;;;;9.90;8.37;;;;;;;7.05;78.69;92492.16;517458;28;805;-69